Time;durP1;ratioP1;P1;durP2;ratioP2;P2;SDS_P1;SDS_P2;PMS_P1;PMS_P2;Temp;Humidity;BMP_temperature;BMP_pressure;BME280_temperature;BME280_humidity;BME280_pressure;Samples;Min_cycle;Max_cycle;Signal;HPM_P1;HPM_P2
2022/01/12 00:00:55;;;;;;;19.85;11.63;;;5.90;96.90;;;;;;5032227;28;20056;-76
2022/01/12 00:03:21;;;;;;;25.63;12.02;;;5.90;97.00;;;;;;5032661;28;20021;-73
2022/01/12 00:05:47;;;;;;;23.83;11.98;;;6.00;97.00;;;;;;5032670;28;20056;-75
2022/01/12 00:08:13;;;;;;;20.10;11.02;;;6.00;97.20;;;;;;5032113;28;20495;-75
2022/01/12 00:10:39;;;;;;;19.73;12.13;;;5.90;97.30;;;;;;5032171;28;20033;-75
2022/01/12 00:13:05;;;;;;;20.85;12.38;;;5.80;97.50;;;;;;5032065;28;20069;-73
2022/01/12 00:15:31;;;;;;;24.92;12.63;;;5.80;97.70;;;;;;5032270;28;20060;-76
2022/01/12 00:17:56;;;;;;;22.63;11.98;;;5.70;98.10;;;;;;5031957;28;20041;-71
2022/01/12 00:20:22;;;;;;;24.15;13.23;;;5.70;98.10;;;;;;5032414;28;20038;-75
2022/01/12 00:22:48;;;;;;;23.50;12.63;;;5.60;98.70;;;;;;5032240;28;20397;-75
2022/01/12 00:33:12;;;;;;;25.35;13.50;;;5.40;99.90;;;;;;5031985;28;20032;-76
2022/01/12 00:35:40;;;;;;;24.27;13.95;;;5.40;99.90;;;;;;5032405;28;20105;-74
2022/01/12 00:38:06;;;;;;;24.70;14.65;;;5.30;99.90;;;;;;5036031;28;20021;-71
2022/01/12 00:40:32;;;;;;;25.15;13.40;;;5.30;99.90;;;;;;5036112;28;20440;-73
2022/01/12 00:42:58;;;;;;;22.80;13.13;;;5.20;99.90;;;;;;5036563;28;20053;-73
2022/01/12 00:45:24;;;;;;;24.33;14.00;;;5.20;99.90;;;;;;5040078;28;20450;-74
2022/01/12 00:47:50;;;;;;;26.38;15.50;;;5.20;99.90;;;;;;5036572;28;20064;-74
2022/01/12 00:50:17;;;;;;;25.60;15.00;;;5.20;99.90;;;;;;5037108;28;20160;-78
2022/01/12 00:52:43;;;;;;;25.48;14.75;;;5.10;99.90;;;;;;5036465;28;20029;-74
2022/01/12 00:55:09;;;;;;;26.05;14.50;;;5.10;99.90;;;;;;5037168;28;20028;-73
2022/01/12 00:57:35;;;;;;;26.40;15.30;;;5.10;99.90;;;;;;5037257;28;20057;-76
2022/01/12 01:00:00;;;;;;;26.77;15.60;;;5.10;99.90;;;;;;5036539;28;20172;-74
2022/01/12 01:02:26;;;;;;;28.45;16.10;;;5.10;99.90;;;;;;5036938;28;20032;-74
2022/01/12 01:04:51;;;;;;;29.23;16.77;;;5.10;99.90;;;;;;5036794;28;20044;-73
2022/01/12 01:07:17;;;;;;;25.58;15.80;;;5.20;99.90;;;;;;5036662;28;20123;-74
2022/01/12 01:09:53;;;;;;;26.85;15.90;;;5.20;99.90;;;;;;5036643;28;20037;-74
2022/01/12 01:12:19;;;;;;;24.90;16.40;;;5.30;99.90;;;;;;5036490;28;20037;-74
2022/01/12 01:14:59;;;;;;;27.52;15.75;;;5.30;99.90;;;;;;5036939;28;20403;-74
2022/01/12 01:25:45;;;;;;;27.70;17.88;;;5.30;99.90;;;;;;5036562;28;20124;-74
2022/01/12 01:28:12;;;;;;;28.45;18.42;;;5.30;99.90;;;;;;5036304;28;20045;-73
2022/01/12 01:30:40;;;;;;;30.83;18.98;;;5.30;99.90;;;;;;5036142;28;20527;-74
2022/01/12 01:33:08;;;;;;;31.48;19.75;;;5.30;99.90;;;;;;5036392;28;20029;-73
2022/01/12 01:35:36;;;;;;;31.90;19.52;;;5.40;99.90;;;;;;5036228;28;20075;-73
2022/01/12 01:38:04;;;;;;;35.35;20.13;;;5.30;99.90;;;;;;5036145;28;20025;-73
2022/01/12 01:40:32;;;;;;;32.25;20.27;;;5.30;99.90;;;;;;5036165;28;20480;-74
2022/01/12 01:53:50;;;;;;;34.63;20.88;;;5.20;99.90;;;;;;5036239;28;20037;-74
2022/01/12 01:56:16;;;;;;;34.75;21.58;;;5.20;99.90;;;;;;5035933;28;20021;-73
2022/01/12 01:58:41;;;;;;;35.10;21.98;;;5.20;99.90;;;;;;5035909;28;20052;-74
2022/01/12 02:01:07;;;;;;;35.42;21.02;;;5.20;99.90;;;;;;5035583;28;20497;-74
2022/01/12 02:03:33;;;;;;;34.88;21.63;;;5.30;99.90;;;;;;5033533;28;20440;-73
2022/01/12 02:05:59;;;;;;;32.75;20.95;;;5.30;99.90;;;;;;5033681;28;20109;-73
2022/01/12 02:08:26;;;;;;;32.22;20.25;;;5.20;99.90;;;;;;5033736;28;20048;-73
2022/01/12 02:10:56;;;;;;;37.03;21.15;;;5.30;99.90;;;;;;5033715;28;20029;-74
2022/01/12 02:13:23;;;;;;;34.42;21.35;;;5.40;99.90;;;;;;5033744;28;20029;-74
2022/01/12 02:15:49;;;;;;;35.63;22.80;;;5.40;99.90;;;;;;5033793;28;20032;-74
2022/01/12 02:18:38;;;;;;;35.40;22.25;;;5.40;99.90;;;;;;5034827;28;20091;-73
2022/01/12 02:40:47;;;;;;;36.40;21.25;;;5.50;99.90;;;;;;5035658;28;20033;-74
2022/01/12 02:43:27;;;;;;;36.92;21.75;;;5.40;99.90;;;;;;5035221;28;20117;-74
2022/01/12 02:51:16;;;;;;;44.33;23.10;;;5.40;99.90;;;;;;5035027;28;20022;-74
2022/01/12 02:53:43;;;;;;;;;;;5.50;99.90;;;;;;5034864;28;20033;-74
2022/01/12 02:56:17;;;;;;;39.67;21.50;;;5.40;99.90;;;;;;5034652;28;19905;-74
2022/01/12 02:58:45;;;;;;;36.50;21.10;;;5.50;99.90;;;;;;5034573;28;20504;-74
2022/01/12 03:04:02;;;;;;;36.90;22.55;;;5.60;99.90;;;;;;5034692;28;20476;-74
2022/01/12 03:06:32;;;;;;;39.75;23.35;;;5.60;99.90;;;;;;5034611;28;20033;-74
2022/01/12 03:08:58;;;;;;;40.42;22.88;;;5.60;99.90;;;;;;5034839;28;20025;-74
2022/01/12 03:11:26;;;;;;;43.13;22.98;;;5.60;99.90;;;;;;5034578;28;20030;-74
2022/01/12 03:13:53;;;;;;;48.33;24.83;;;5.60;99.90;;;;;;5034186;28;20103;-74
2022/01/12 03:16:23;;;;;;;41.90;24.88;;;5.50;99.90;;;;;;5034355;28;20094;-74
2022/01/12 03:19:00;;;;;;;41.78;25.83;;;5.50;99.90;;;;;;5034564;28;20022;-74
2022/01/12 03:21:29;;;;;;;43.30;25.20;;;5.60;99.90;;;;;;5034513;28;20029;-75
2022/01/12 03:23:55;;;;;;;42.58;25.20;;;5.60;99.90;;;;;;5034467;28;20025;-74
2022/01/12 03:26:22;;;;;;;43.97;25.92;;;5.60;99.90;;;;;;5033714;28;20087;-74
2022/01/12 03:28:53;;;;;;;47.67;26.63;;;5.60;99.90;;;;;;5034244;28;20025;-75
2022/01/12 03:31:22;;;;;;;44.58;26.17;;;5.70;99.90;;;;;;5034278;28;20025;-75
2022/01/12 03:39:04;;;;;;;46.67;27.50;;;5.60;99.90;;;;;;5045272;28;20124;-74
2022/01/12 03:41:32;;;;;;;47.10;26.85;;;5.60;99.90;;;;;;5033669;28;20030;-74
2022/01/12 03:43:59;;;;;;;43.65;25.58;;;5.60;99.90;;;;;;5034215;28;20385;-74
2022/01/12 03:46:25;;;;;;;42.42;25.85;;;5.60;99.90;;;;;;5033866;28;20029;-74
2022/01/12 03:48:51;;;;;;;42.92;25.63;;;5.60;99.90;;;;;;5033867;28;20052;-74
2022/01/12 03:51:17;;;;;;;43.28;26.83;;;5.70;99.90;;;;;;5033676;28;20477;-74
2022/01/12 03:53:42;;;;;;;41.83;24.55;;;5.70;99.90;;;;;;5033651;28;20458;-74
2022/01/12 03:56:08;;;;;;;43.78;25.38;;;5.70;99.90;;;;;;5033525;28;20017;-74
2022/01/12 03:58:34;;;;;;;44.20;25.65;;;5.70;99.90;;;;;;5033666;28;20397;-73
2022/01/12 04:01:00;;;;;;;43.78;25.05;;;5.70;99.90;;;;;;5033444;28;20046;-74
2022/01/12 04:03:27;;;;;;;45.00;26.92;;;5.70;99.90;;;;;;5033683;28;20029;-75
2022/01/12 04:08:37;;;;;;;38.58;24.70;;;5.70;99.90;;;;;;5033679;28;20048;-75
2022/01/12 04:11:02;;;;;;;41.70;25.25;;;5.70;99.90;;;;;;5032734;28;20029;-74
2022/01/12 04:13:29;;;;;;;42.03;25.13;;;5.70;99.90;;;;;;5033434;28;20033;-74
2022/01/12 04:16:02;;;;;;;37.20;24.88;;;5.70;99.90;;;;;;5033492;28;20029;-74
2022/01/12 04:18:28;;;;;;;;;;;5.70;99.90;;;;;;5033680;28;20111;-75
2022/01/12 04:20:54;;;;;;;40.42;24.02;;;5.70;99.90;;;;;;5033357;28;19959;-75
2022/01/12 04:23:22;;;;;;;41.50;24.95;;;5.60;99.90;;;;;;5033193;28;20056;-75
2022/01/12 04:25:56;;;;;;;41.20;25.02;;;5.60;99.90;;;;;;5033468;28;20017;-75
2022/01/12 04:28:23;;;;;;;42.25;25.58;;;5.60;99.90;;;;;;5033316;28;20053;-74
2022/01/12 04:30:50;;;;;;;40.28;25.10;;;5.60;99.90;;;;;;5033273;28;20373;-74
2022/01/12 04:33:17;;;;;;;39.90;25.73;;;5.70;99.90;;;;;;5033351;28;20029;-74
2022/01/12 04:35:47;;;;;;;39.70;24.17;;;5.70;99.90;;;;;;5033139;28;20104;-74
2022/01/12 04:38:14;;;;;;;37.63;24.75;;;5.60;99.90;;;;;;5033336;28;20040;-74
2022/01/12 04:40:40;;;;;;;39.45;24.40;;;5.70;99.90;;;;;;5033436;28;20082;-74
2022/01/12 04:43:08;;;;;;;40.42;25.48;;;5.60;99.90;;;;;;5033188;28;20076;-74
2022/01/12 04:48:32;;;;;;;39.65;24.95;;;5.50;99.90;;;;;;5033307;28;20072;-74
2022/01/12 04:50:47;;;;;;;37.55;23.52;;;5.60;99.90;;;;;;5032821;28;20389;-74
2022/01/12 04:53:15;;;;;;;40.10;24.98;;;5.60;99.90;;;;;;5032847;28;20029;-74
2022/01/12 04:55:41;;;;;;;39.38;25.05;;;5.60;99.90;;;;;;5032992;28;20472;-74
2022/01/12 04:58:08;;;;;;;39.03;24.08;;;5.60;99.90;;;;;;5032941;28;20037;-73
2022/01/12 05:00:35;;;;;;;38.33;24.40;;;5.50;99.90;;;;;;5032737;28;20053;-75
2022/01/12 05:13:46;;;;;;;39.28;24.73;;;5.60;99.90;;;;;;5033204;28;20131;-74
2022/01/12 05:16:12;;;;;;;39.63;25.52;;;5.70;99.90;;;;;;5032839;28;20026;-73
2022/01/12 05:18:39;;;;;;;37.95;25.38;;;5.70;99.90;;;;;;5032862;28;20056;-73
2022/01/12 05:21:06;;;;;;;39.90;24.55;;;5.70;99.90;;;;;;5032852;28;20032;-74
2022/01/12 05:23:32;;;;;;;40.85;25.48;;;5.70;99.90;;;;;;5035111;28;20389;-74
2022/01/12 05:25:59;;;;;;;38.63;23.80;;;5.70;99.90;;;;;;5036556;28;20026;-74
2022/01/12 05:28:25;;;;;;;37.92;24.83;;;5.80;99.90;;;;;;5036303;28;20046;-73
2022/01/12 05:30:53;;;;;;;39.22;25.00;;;5.80;99.90;;;;;;5036647;28;20033;-74
2022/01/12 05:33:20;;;;;;;42.05;24.67;;;5.80;99.90;;;;;;5039965;28;20563;-78
2022/01/12 05:35:46;;;;;;;41.33;25.30;;;5.80;99.90;;;;;;5040892;28;20388;-75
2022/01/12 05:38:13;;;;;;;37.92;24.13;;;5.70;99.90;;;;;;5036182;28;20117;-74
2022/01/12 05:40:46;;;;;;;41.47;24.92;;;5.70;99.90;;;;;;5036410;28;20042;-74
2022/01/12 05:43:13;;;;;;;43.35;25.55;;;5.80;99.90;;;;;;5036114;28;20451;-74
2022/01/12 05:45:40;;;;;;;44.50;26.40;;;5.70;99.90;;;;;;5036097;28;20089;-74
2022/01/12 05:50:37;;;;;;;40.97;26.00;;;5.70;99.90;;;;;;5036201;28;20057;-74
2022/01/12 05:53:03;;;;;;;43.35;26.00;;;5.70;99.90;;;;;;5035867;28;20083;-73
2022/01/12 05:55:29;;;;;;;46.85;26.90;;;5.80;99.90;;;;;;5035949;28;20025;-74
2022/01/12 05:57:55;;;;;;;47.17;25.75;;;5.80;99.90;;;;;;5036214;28;20036;-74
2022/01/12 06:00:22;;;;;;;49.17;27.80;;;5.80;99.90;;;;;;5035735;28;20049;-74
2022/01/12 06:02:49;;;;;;;48.05;28.05;;;5.80;99.90;;;;;;5036043;28;20026;-74
2022/01/12 06:05:15;;;;;;;52.00;29.17;;;5.80;99.90;;;;;;5035322;28;20025;-74
2022/01/12 06:07:43;;;;;;;49.13;28.42;;;5.80;99.90;;;;;;5035850;28;20396;-74
2022/01/12 06:10:10;;;;;;;47.03;27.95;;;5.80;99.90;;;;;;5035740;28;20049;-74
2022/01/12 06:12:35;;;;;;;51.05;27.15;;;5.70;99.90;;;;;;5035871;28;20025;-74
2022/01/12 06:15:01;;;;;;;49.55;27.95;;;5.70;99.90;;;;;;5035520;28;20025;-74
2022/01/12 06:17:27;;;;;;;47.20;26.45;;;5.80;99.90;;;;;;5035466;28;20033;-74
2022/01/12 06:19:52;;;;;;;52.55;28.15;;;5.80;99.90;;;;;;5035465;28;20034;-74
2022/01/12 06:22:18;;;;;;;51.22;27.13;;;5.90;99.90;;;;;;5035446;28;20493;-74
2022/01/12 06:24:43;;;;;;;50.88;28.08;;;5.90;99.90;;;;;;5035582;28;20022;-75
2022/01/12 06:27:13;;;;;;;54.90;27.40;;;5.90;99.90;;;;;;5035357;28;20468;-75
2022/01/12 06:32:05;;;;;;;47.20;25.85;;;6.00;99.90;;;;;;5047230;28;20022;-74
2022/01/12 06:34:31;;;;;;;47.85;25.30;;;6.10;99.90;;;;;;5033521;28;20025;-75
2022/01/12 06:36:57;;;;;;;48.08;25.70;;;6.10;99.90;;;;;;5035185;28;20384;-75
2022/01/12 06:39:23;;;;;;;51.03;25.95;;;6.10;99.90;;;;;;5035267;28;20087;-74
2022/01/12 06:41:52;;;;;;;51.63;24.75;;;6.20;99.90;;;;;;5034796;28;20492;-75
2022/01/12 06:44:20;;;;;;;49.17;26.13;;;6.20;99.90;;;;;;5034772;28;20029;-74
2022/01/12 06:46:47;;;;;;;52.95;25.48;;;6.20;99.90;;;;;;5034803;28;20143;-74
2022/01/12 06:49:13;;;;;;;52.25;25.30;;;6.30;99.90;;;;;;5034667;28;20026;-74
2022/01/12 06:51:39;;;;;;;48.72;24.48;;;6.20;99.90;;;;;;5034089;28;20033;-74
2022/01/12 06:54:05;;;;;;;48.35;25.70;;;6.30;99.90;;;;;;5032485;28;20106;-74
2022/01/12 06:56:31;;;;;;;47.80;25.48;;;6.30;99.90;;;;;;5032984;28;20120;-74
2022/01/12 06:58:57;;;;;;;50.05;25.15;;;6.30;99.90;;;;;;5032210;28;20445;-74
2022/01/12 07:01:23;;;;;;;69.95;23.55;;;6.30;99.90;;;;;;5031795;28;20124;-74
2022/01/12 07:03:49;;;;;;;62.67;24.75;;;6.30;99.90;;;;;;5035188;28;20504;-79
2022/01/12 07:06:15;;;;;;;52.63;24.92;;;6.30;99.90;;;;;;5034109;28;20064;-78
2022/01/12 07:08:41;;;;;;;54.05;25.40;;;6.30;99.90;;;;;;5049712;28;20064;-79
2022/01/12 07:11:06;;;;;;;53.05;25.67;;;6.30;99.90;;;;;;5049007;28;20037;-80
2022/01/12 07:13:32;;;;;;;52.58;24.58;;;6.30;99.90;;;;;;5049025;28;20020;-79
2022/01/12 07:15:58;;;;;;;52.97;26.70;;;6.40;99.90;;;;;;5049712;28;20434;-77
2022/01/12 07:18:25;;;;;;;50.30;26.63;;;6.40;99.90;;;;;;5048419;28;20119;-76
2022/01/12 07:20:51;;;;;;;49.67;25.92;;;6.30;99.90;;;;;;5049609;28;20052;-77
2022/01/12 07:23:17;;;;;;;55.65;26.50;;;6.30;99.90;;;;;;5049476;28;20427;-77
2022/01/12 07:25:43;;;;;;;44.53;22.35;;;6.30;99.90;;;;;;5049575;28;20333;-77
2022/01/12 07:28:09;;;;;;;44.40;21.35;;;6.20;99.90;;;;;;5049757;28;20045;-76
2022/01/12 07:30:35;;;;;;;46.03;22.65;;;6.10;99.90;;;;;;5049128;28;20427;-78
2022/01/12 07:33:01;;;;;;;47.90;23.38;;;6.00;99.90;;;;;;5049523;28;20041;-77
2022/01/12 07:35:27;;;;;;;47.92;22.98;;;5.70;99.90;;;;;;5048830;28;20526;-77
2022/01/12 07:37:52;;;;;;;52.83;24.10;;;5.60;99.90;;;;;;5050192;28;20037;-77
2022/01/12 07:40:18;;;;;;;52.88;24.70;;;5.70;99.90;;;;;;5047863;28;20743;-77
2022/01/12 07:42:44;;;;;;;46.97;23.45;;;5.70;99.90;;;;;;5049404;28;20484;-78
2022/01/12 07:45:10;;;;;;;47.20;22.27;;;5.80;99.90;;;;;;5048115;28;20155;-77
2022/01/12 07:47:36;;;;;;;49.50;24.02;;;5.80;99.90;;;;;;5049509;28;20140;-77
2022/01/12 07:50:04;;;;;;;45.97;23.02;;;5.90;99.90;;;;;;5048302;28;20459;-78
2022/01/12 07:52:30;;;;;;;47.05;22.45;;;5.90;99.90;;;;;;5019799;28;20033;-76
2022/01/12 07:54:56;;;;;;;49.30;22.45;;;5.90;99.90;;;;;;5013566;28;20438;-75
2022/01/12 07:57:22;;;;;;;49.38;23.10;;;5.90;99.90;;;;;;5023450;28;20038;-75
2022/01/12 07:59:48;;;;;;;46.03;23.58;;;6.00;99.90;;;;;;5047614;28;20063;-75
2022/01/12 08:02:14;;;;;;;47.92;23.42;;;6.00;99.90;;;;;;5049292;28;20037;-75
2022/01/12 08:04:40;;;;;;;46.53;22.48;;;6.00;99.90;;;;;;5047970;28;20041;-76
2022/01/12 08:07:07;;;;;;;47.90;22.80;;;6.10;99.90;;;;;;5049004;28;20060;-76
2022/01/12 08:09:33;;;;;;;52.80;23.77;;;6.10;99.90;;;;;;5048452;28;20071;-76
2022/01/12 08:11:58;;;;;;;52.15;23.63;;;6.10;99.90;;;;;;5049119;28;20048;-77
2022/01/12 08:14:24;;;;;;;48.92;23.17;;;6.00;99.90;;;;;;5048399;28;20543;-77
2022/01/12 08:16:50;;;;;;;53.60;24.73;;;6.00;99.90;;;;;;5048717;28;20112;-76
2022/01/12 08:19:18;;;;;;;51.22;23.75;;;5.90;99.90;;;;;;5048542;28;20059;-76
2022/01/12 08:21:44;;;;;;;54.97;24.23;;;5.90;99.90;;;;;;5049275;28;20299;-76
2022/01/12 08:24:12;;;;;;;54.45;24.80;;;5.90;99.90;;;;;;5048224;28;20057;-76
2022/01/12 08:26:38;;;;;;;51.88;25.08;;;5.80;99.90;;;;;;5048869;28;20129;-76
2022/01/12 08:29:04;;;;;;;55.80;25.30;;;5.50;99.90;;;;;;5048507;28;20029;-76
2022/01/12 08:31:30;;;;;;;57.30;26.38;;;5.30;99.90;;;;;;5048785;28;20098;-78
2022/01/12 08:33:56;;;;;;;59.38;26.20;;;5.30;99.90;;;;;;5047994;28;20207;-75
2022/01/12 08:36:21;;;;;;;51.80;24.30;;;5.30;99.90;;;;;;5048589;28;20197;-78
2022/01/12 08:38:47;;;;;;;56.92;25.73;;;5.40;99.90;;;;;;5048448;28;20025;-75
2022/01/12 08:41:14;;;;;;;56.25;25.38;;;5.60;99.90;;;;;;5045885;28;20060;-77
2022/01/12 08:43:40;;;;;;;53.50;25.85;;;5.60;99.90;;;;;;5048820;28;20472;-79
2022/01/12 08:46:06;;;;;;;53.97;25.15;;;5.70;99.90;;;;;;5049258;28;20036;-81
2022/01/12 08:48:31;;;;;;;51.35;23.02;;;5.80;99.90;;;;;;5048166;28;20037;-80
2022/01/12 08:50:57;;;;;;;48.80;23.67;;;5.80;99.90;;;;;;5049283;28;20024;-81
2022/01/12 08:53:23;;;;;;;52.88;24.30;;;5.90;99.90;;;;;;5049142;28;20045;-77
2022/01/12 08:55:49;;;;;;;48.53;24.08;;;5.90;99.90;;;;;;5048684;28;20092;-78
2022/01/12 08:58:14;;;;;;;44.10;21.20;;;6.00;99.90;;;;;;5049549;28;20433;-77
2022/01/12 09:00:40;;;;;;;42.88;21.15;;;6.10;99.90;;;;;;5053954;28;20053;-83
2022/01/12 09:03:06;;;;;;;34.25;17.30;;;6.30;99.90;;;;;;5051940;28;20035;-78
2022/01/12 09:05:32;;;;;;;48.40;24.25;;;6.50;99.90;;;;;;5051926;28;20025;-78
2022/01/12 09:07:59;;;;;;;41.58;21.00;;;6.60;99.90;;;;;;5052338;28;20578;-79
2022/01/12 09:10:25;;;;;;;40.60;22.05;;;6.70;99.90;;;;;;5052574;28;20115;-77
2022/01/12 09:12:51;;;;;;;50.60;23.83;;;6.80;99.90;;;;;;5052345;28;20174;-81
2022/01/12 09:15:17;;;;;;;41.88;21.75;;;6.80;99.90;;;;;;5051941;28;20025;-78
2022/01/12 09:17:44;;;;;;;49.95;23.80;;;6.80;99.90;;;;;;5051998;28;20543;-79
2022/01/12 09:20:10;;;;;;;47.42;22.30;;;6.80;99.90;;;;;;5051981;28;20166;-79
2022/01/12 09:22:37;;;;;;;47.97;22.40;;;6.80;99.90;;;;;;5044374;28;20040;-80
2022/01/12 09:25:07;;;;;;;45.90;22.27;;;6.70;99.90;;;;;;5036278;28;20025;-79
2022/01/12 09:27:33;;;;;;;47.80;22.75;;;6.80;99.90;;;;;;5036113;28;20069;-77
2022/01/12 09:29:59;;;;;;;44.55;22.15;;;6.80;99.90;;;;;;5044799;28;20094;-75
2022/01/12 09:32:24;;;;;;;44.45;23.00;;;6.80;99.90;;;;;;5049733;28;20049;-80
2022/01/12 09:34:50;;;;;;;43.60;21.42;;;6.80;99.90;;;;;;5047520;28;20029;-77
2022/01/12 09:37:15;;;;;;;43.50;22.17;;;6.80;99.90;;;;;;5047079;28;20508;-77
2022/01/12 09:39:41;;;;;;;42.80;21.15;;;6.90;99.90;;;;;;5045480;28;20024;-77
2022/01/12 09:42:07;;;;;;;43.45;21.35;;;6.90;99.90;;;;;;5051446;28;20040;-78
2022/01/12 09:44:35;;;;;;;49.70;23.50;;;6.90;99.70;;;;;;5052099;28;20033;-78
2022/01/12 09:47:02;;;;;;;37.47;18.67;;;6.90;99.90;;;;;;5050857;28;20184;-76
2022/01/12 09:49:29;;;;;;;45.47;22.08;;;6.90;99.90;;;;;;5051487;28;20495;-77
2022/01/12 09:51:55;;;;;;;51.47;22.98;;;6.90;99.90;;;;;;5050816;28;20037;-75
2022/01/12 09:54:21;;;;;;;44.88;22.05;;;6.80;99.50;;;;;;5050754;28;20037;-78
2022/01/12 09:56:48;;;;;;;43.45;21.38;;;6.60;99.20;;;;;;5051256;28;20021;-78
2022/01/12 09:59:14;;;;;;;40.30;20.33;;;6.60;99.50;;;;;;5051210;28;20040;-76
2022/01/12 10:01:45;;;;;;;37.53;19.75;;;6.70;99.80;;;;;;5051871;28;20112;-76
2022/01/12 10:04:16;;;;;;;45.70;20.92;;;6.70;99.80;;;;;;5051232;28;20463;-76
2022/01/12 10:07:03;;;;;;;46.05;22.20;;;6.80;99.50;;;;;;5051598;28;20037;-77
2022/01/12 10:09:45;;;;;;;44.53;21.27;;;6.80;99.50;;;;;;5049796;28;20549;-75
2022/01/12 10:12:14;;;;;;;35.42;19.25;;;6.90;99.70;;;;;;5052164;28;20028;-75
2022/01/12 10:14:55;;;;;;;39.28;19.30;;;6.90;99.90;;;;;;5050720;28;20069;-74
2022/01/12 10:17:34;;;;;;;45.10;21.35;;;7.10;99.90;;;;;;5051224;28;20385;-75
2022/01/12 10:20:14;;;;;;;45.88;21.48;;;7.00;99.00;;;;;;5051592;28;20052;-76
2022/01/12 10:22:44;;;;;;;42.95;21.17;;;6.80;99.00;;;;;;5054501;28;20247;-75
2022/01/12 10:25:21;;;;;;;43.83;20.63;;;6.50;99.50;;;;;;5051094;28;20074;-75
2022/01/12 10:27:46;;;;;;;42.67;20.20;;;6.30;99.70;;;;;;5049016;28;20087;-75
2022/01/12 10:30:30;;;;;;;41.00;20.38;;;6.20;99.90;;;;;;5049587;28;20028;-75
2022/01/12 10:33:03;;;;;;;38.90;20.02;;;6.20;99.90;;;;;;5043991;28;20036;-78
2022/01/12 10:35:30;;;;;;;31.40;16.25;;;6.10;99.90;;;;;;5049893;28;20112;-79
2022/01/12 10:38:14;;;;;;;38.33;18.90;;;6.20;99.90;;;;;;5045084;28;20025;-79
2022/01/12 10:40:59;;;;;;;35.97;17.95;;;6.40;99.90;;;;;;5049301;28;20060;-80
2022/01/12 10:43:33;;;;;;;37.13;18.80;;;6.50;99.90;;;;;;5051108;28;20033;-83
2022/01/12 10:46:02;;;;;;;38.20;19.52;;;6.70;99.90;;;;;;5049205;28;20039;-84
2022/01/12 10:48:46;;;;;;;43.55;20.40;;;6.80;99.90;;;;;;5050664;28;20033;-79
2022/01/12 10:51:19;;;;;;;43.03;21.00;;;6.70;99.70;;;;;;5028720;28;20052;-80
2022/01/12 10:53:46;;;;;;;39.40;20.00;;;6.60;99.70;;;;;;5025759;28;20042;-78
2022/01/12 10:56:17;;;;;;;41.20;20.60;;;6.50;99.90;;;;;;5016564;28;20033;-78
2022/01/12 10:58:45;;;;;;;44.60;20.92;;;6.40;99.90;;;;;;5048235;28;20434;-79
2022/01/12 11:01:12;;;;;;;47.53;20.90;;;6.40;99.90;;;;;;5048024;28;20112;-79
2022/01/12 11:03:39;;;;;;;47.50;22.15;;;6.40;99.90;;;;;;5046517;28;20029;-79
2022/01/12 11:06:08;;;;;;;43.40;21.48;;;6.30;99.90;;;;;;5049702;28;20109;-78
2022/01/12 11:08:36;;;;;;;45.80;20.80;;;6.40;99.90;;;;;;5049465;28;20122;-78
2022/01/12 11:11:02;;;;;;;45.60;20.02;;;6.50;99.90;;;;;;5050528;28;20172;-82
2022/01/12 11:13:29;;;;;;;41.20;19.23;;;6.60;99.90;;;;;;5050061;28;20115;-77
2022/01/12 11:15:59;;;;;;;38.00;19.33;;;6.80;99.90;;;;;;5050421;28;20090;-79
2022/01/12 11:18:31;;;;;;;38.70;18.40;;;6.90;99.90;;;;;;5050494;28;20033;-85
2022/01/12 11:21:06;;;;;;;39.03;19.33;;;7.00;99.90;;;;;;5050127;28;20048;-77
2022/01/12 11:23:37;;;;;;;38.60;18.67;;;7.10;99.90;;;;;;5049596;28;20037;-77
2022/01/12 11:26:14;;;;;;;37.47;18.00;;;7.10;99.60;;;;;;5050159;28;20052;-83
2022/01/12 11:28:40;;;;;;;32.78;16.08;;;7.20;99.50;;;;;;5048891;28;20044;-80
2022/01/12 11:31:08;;;;;;;31.60;16.60;;;7.20;99.40;;;;;;5050491;28;20021;-85
2022/01/12 11:33:33;;;;;;;32.67;16.33;;;7.30;99.40;;;;;;5048924;28;20065;-85
2022/01/12 11:36:04;;;;;;;33.90;16.55;;;7.30;99.30;;;;;;5049258;28;20021;-79
2022/01/12 11:38:35;;;;;;;35.47;17.08;;;7.40;99.20;;;;;;5048299;28;20029;-82
2022/01/12 11:41:23;;;;;;;35.33;16.75;;;7.40;99.10;;;;;;5050010;28;20053;-77
2022/01/12 11:44:03;;;;;;;38.03;16.70;;;7.50;98.70;;;;;;5048270;28;20021;-83
2022/01/12 11:46:50;;;;;;;35.75;16.67;;;7.50;98.50;;;;;;5047984;28;20136;-77
2022/01/12 11:49:30;;;;;;;36.10;17.38;;;7.50;98.70;;;;;;5046913;28;20029;-75
2022/01/12 11:51:57;;;;;;;32.42;16.27;;;7.40;98.40;;;;;;5049435;28;20376;-79
2022/01/12 11:54:32;;;;;;;36.85;17.30;;;7.40;98.30;;;;;;5047623;28;20043;-79
2022/01/12 11:57:07;;;;;;;35.28;17.08;;;7.30;98.20;;;;;;5049910;28;20041;-84
2022/01/12 11:59:51;;;;;;;38.42;17.45;;;7.30;98.40;;;;;;5046020;28;20048;-89
2022/01/12 12:02:19;;;;;;;34.47;16.80;;;7.30;98.20;;;;;;5050475;28;20021;-90
2022/01/12 12:04:57;;;;;;;32.53;16.58;;;7.30;98.60;;;;;;5049002;28;20049;-79
2022/01/12 12:07:24;;;;;;;36.83;17.55;;;7.30;98.70;;;;;;5045805;28;20395;-85
2022/01/12 12:09:57;;;;;;;29.17;14.77;;;7.40;98.80;;;;;;5048251;28;20099;-81
2022/01/12 12:12:34;;;;;;;37.83;16.80;;;7.40;98.70;;;;;;5046462;28;20556;-84
2022/01/12 12:15:03;;;;;;;34.60;16.38;;;7.50;98.70;;;;;;5046664;28;20033;-89
2022/01/12 12:17:31;;;;;;;36.72;17.63;;;7.60;98.50;;;;;;5045448;28;20029;-85
2022/01/12 12:20:24;;;;;;;30.30;14.90;;;7.60;98.10;;;;;;5045818;28;20087;-86
2022/01/12 12:22:50;;;;;;;34.17;16.93;;;7.60;98.20;;;;;;5014985;28;20048;-81
2022/01/12 12:25:22;;;;;;;34.38;15.38;;;7.70;98.00;;;;;;5016803;28;20135;-79
2022/01/12 12:28:13;;;;;;;38.90;17.48;;;7.70;97.90;;;;;;5032542;28;20128;-78
2022/01/12 12:30:39;;;;;;;38.83;17.95;;;7.80;97.70;;;;;;5042350;28;20475;-78
2022/01/12 12:33:12;;;;;;;34.40;17.00;;;7.80;97.60;;;;;;5038346;28;20376;-78
2022/01/12 12:35:39;;;;;;;36.70;16.75;;;7.80;97.80;;;;;;5048057;28;20051;-82
2022/01/12 12:38:10;;;;;;;34.60;17.60;;;7.80;97.80;;;;;;5052001;28;20021;-84
2022/01/12 12:40:39;;;;;;;39.08;17.52;;;7.80;97.70;;;;;;5051675;28;20021;-79
2022/01/12 12:43:05;;;;;;;31.63;15.68;;;7.80;97.60;;;;;;5051547;28;20021;-80
2022/01/12 12:45:43;;;;;;;34.92;15.30;;;7.70;97.40;;;;;;5047810;28;20040;-75
2022/01/12 12:48:12;;;;;;;30.88;15.55;;;7.70;97.50;;;;;;5043702;28;20030;-77
2022/01/12 12:50:39;;;;;;;33.70;15.07;;;7.80;97.30;;;;;;5044414;28;20053;-86
2022/01/12 12:53:05;;;;;;;33.60;16.13;;;7.90;97.40;;;;;;5045282;28;20041;-79
2022/01/12 12:55:36;;;;;;;31.27;15.05;;;7.90;97.10;;;;;;5043659;28;20078;-81
2022/01/12 12:58:02;;;;;;;30.83;14.48;;;7.90;96.80;;;;;;5041590;28;20434;-84
2022/01/12 13:00:28;;;;;;;33.50;14.80;;;7.90;96.90;;;;;;5047595;28;20132;-80
2022/01/12 13:02:56;;;;;;;31.70;15.02;;;7.90;96.90;;;;;;5042974;28;20083;-78
2022/01/12 13:05:27;;;;;;;34.13;15.95;;;7.90;97.00;;;;;;5050959;28;20053;-77
2022/01/12 13:07:53;;;;;;;41.28;16.27;;;8.00;97.10;;;;;;5043134;28;20041;-77
2022/01/12 13:10:30;;;;;;;33.22;14.55;;;7.90;97.20;;;;;;5051243;28;20028;-77
2022/01/12 13:13:01;;;;;;;31.70;16.13;;;7.90;96.80;;;;;;5050921;28;20105;-78
2022/01/12 13:15:35;;;;;;;30.00;15.25;;;8.00;96.90;;;;;;5050949;28;20021;-75
2022/01/12 13:18:11;;;;;;;33.45;15.50;;;8.00;96.80;;;;;;5042887;28;20099;-78
2022/01/12 13:23:25;;;;;;;33.50;17.05;;;8.00;96.50;;;;;;5050859;28;20039;-78
2022/01/12 13:25:57;;;;;;;35.72;16.13;;;8.00;96.30;;;;;;5051615;28;20318;-79
2022/01/12 13:28:24;;;;;;;33.88;16.88;;;8.00;96.20;;;;;;5050769;28;20032;-78
2022/01/12 13:30:50;;;;;;;33.83;17.30;;;7.90;96.00;;;;;;5049958;28;20028;-80
2022/01/12 13:33:43;;;;;;;35.28;16.73;;;7.90;96.10;;;;;;5050498;28;20025;-78
2022/01/12 13:36:16;;;;;;;;;;;7.90;96.10;;;;;;5040535;28;20036;-79
2022/01/12 13:38:46;;;;;;;31.17;15.60;;;7.90;96.20;;;;;;5050945;28;20372;-78
2022/01/12 13:41:17;;;;;;;34.28;16.88;;;7.90;96.20;;;;;;5045790;28;20051;-77
2022/01/12 13:43:48;;;;;;;38.58;16.80;;;8.00;96.30;;;;;;5052087;28;20032;-77
2022/01/12 13:46:17;;;;;;;36.88;17.40;;;7.90;96.20;;;;;;5054146;28;20115;-77
2022/01/12 13:49:37;;;;;;;37.35;16.52;;;7.90;96.10;;;;;;5054853;28;20497;-77
2022/01/12 13:51:39;;;;;;;33.47;15.93;;;7.80;96.20;;;;;;5050670;28;20121;-77
2022/01/12 13:54:13;;;;;;;31.60;16.20;;;7.80;96.40;;;;;;5054616;28;20029;-76
2022/01/12 13:56:43;;;;;;;34.42;16.13;;;7.80;96.30;;;;;;5051412;28;20037;-77
2022/01/12 13:59:10;;;;;;;38.63;15.90;;;7.70;96.10;;;;;;5054342;28;20045;-78
2022/01/12 14:01:38;;;;;;;38.80;16.27;;;7.70;96.20;;;;;;5054051;28;20029;-78
2022/01/12 14:04:11;;;;;;;29.65;14.95;;;7.70;96.20;;;;;;5049327;28;20033;-77
2022/01/12 14:06:46;;;;;;;32.60;16.00;;;7.60;96.30;;;;;;5052928;28;20036;-76
2022/01/12 14:09:29;;;;;;;35.03;17.08;;;7.60;96.50;;;;;;5054479;28;20033;-76